Time;durP1;ratioP1;P1;durP2;ratioP2;P2;SDS_P1;SDS_P2;PMS_P1;PMS_P2;Temp;Humidity;BMP_temperature;BMP_pressure;BME280_temperature;BME280_humidity;BME280_pressure;Samples;Min_cycle;Max_cycle;Signal;HPM_P1;HPM_P2
2023/05/16 00:01:34;;;;;;;17.65;2.88;;;8.20;99.90;;;;;;5009322;28;20458;-38
2023/05/16 00:04:00;;;;;;;14.10;2.83;;;8.20;99.90;;;;;;5010916;28;20558;-40
2023/05/16 00:06:25;;;;;;;19.27;3.42;;;8.20;99.90;;;;;;5010150;28;20053;-38
2023/05/16 00:08:51;;;;;;;13.02;3.03;;;8.10;99.90;;;;;;5052864;28;20039;-45
2023/05/16 00:11:17;;;;;;;18.08;2.90;;;8.10;99.90;;;;;;5010011;28;20794;-38
2023/05/16 00:13:45;;;;;;;15.40;3.00;;;8.10;99.90;;;;;;5010350;28;20046;-38
2023/05/16 00:16:13;;;;;;;15.60;3.13;;;8.00;99.90;;;;;;5010371;28;20052;-37
2023/05/16 00:18:39;;;;;;;18.05;3.92;;;8.00;99.90;;;;;;5021338;28;20041;-38
2023/05/16 00:21:05;;;;;;;18.80;2.95;;;8.00;99.90;;;;;;5008900;28;20436;-40
2023/05/16 00:23:31;;;;;;;21.77;3.42;;;8.00;99.90;;;;;;5010380;28;20042;-36
2023/05/16 00:26:35;;;;;;;16.08;3.30;;;8.00;99.90;;;;;;5010665;28;20366;-39
2023/05/16 00:29:01;;;;;;;;;;;8.00;99.90;;;;;;5069782;28;20125;-35
2023/05/16 00:31:27;;;;;;;9.48;2.45;;;7.90;99.90;;;;;;5068278;28;19999;-37
2023/05/16 00:33:53;;;;;;;15.35;3.15;;;7.90;99.90;;;;;;5068856;28;20520;-36
2023/05/16 00:36:20;;;;;;;15.73;3.95;;;7.80;99.90;;;;;;5062725;28;20059;-40
2023/05/16 00:38:46;;;;;;;10.32;3.10;;;7.80;99.90;;;;;;5069698;28;20051;-36
2023/05/16 00:41:12;;;;;;;13.57;3.35;;;7.80;99.90;;;;;;5062530;28;20051;-35
2023/05/16 00:43:38;;;;;;;13.25;3.10;;;7.70;99.90;;;;;;5051006;28;20128;-40
2023/05/16 00:46:04;;;;;;;15.40;2.90;;;7.70;99.90;;;;;;5055911;28;20615;-38
2023/05/16 00:48:30;;;;;;;20.58;3.75;;;7.70;99.90;;;;;;5069759;28;20126;-42
2023/05/16 00:50:57;;;;;;;18.80;3.92;;;7.60;99.90;;;;;;5067992;28;20162;-38
2023/05/16 00:53:23;;;;;;;13.82;3.83;;;7.60;99.90;;;;;;5052255;28;20589;-37
2023/05/16 00:55:50;;;;;;;16.02;3.35;;;7.60;99.90;;;;;;5069267;28;20621;-38
2023/05/16 00:58:16;;;;;;;14.00;2.58;;;7.60;99.90;;;;;;5068829;28;20145;-35
2023/05/16 01:00:44;;;;;;;13.00;3.05;;;7.60;99.90;;;;;;5019749;28;20136;-38
2023/05/16 01:03:10;;;;;;;15.35;3.70;;;7.50;99.90;;;;;;5056599;28;20118;-40
2023/05/16 01:05:36;;;;;;;13.52;3.25;;;7.50;99.90;;;;;;5009595;28;20458;-39
2023/05/16 02:56:25;;;;;;;12.25;3.75;;;7.10;99.90;;;;;;5023866;27;21140;-34
2023/05/16 02:58:53;;;;;;;15.05;3.75;;;7.10;99.90;;;;;;5030545;27;20140;-38
2023/05/16 03:01:19;;;;;;;15.18;3.33;;;7.10;99.90;;;;;;5026335;27;20399;-42
2023/05/16 03:03:45;;;;;;;15.45;3.45;;;7.10;99.90;;;;;;5022010;27;20072;-37
2023/05/16 03:06:11;;;;;;;14.13;2.58;;;7.10;99.90;;;;;;5023741;27;20473;-39
2023/05/16 03:08:36;;;;;;;12.77;2.70;;;7.10;99.90;;;;;;5021126;28;20093;-38
2023/05/16 03:11:02;;;;;;;12.13;2.83;;;7.10;99.90;;;;;;5025756;27;20150;-43
2023/05/16 03:13:29;;;;;;;13.52;4.47;;;7.10;99.90;;;;;;5026813;27;20047;-39
2023/05/16 03:15:55;;;;;;;15.77;2.45;;;7.00;99.90;;;;;;5024999;27;20044;-35
2023/05/16 03:18:20;;;;;;;11.85;4.32;;;7.10;99.90;;;;;;5024651;27;20057;-35
2023/05/16 03:20:46;;;;;;;12.63;2.60;;;7.10;99.90;;;;;;5026067;27;20113;-40
2023/05/16 03:23:13;;;;;;;13.38;2.45;;;7.10;99.90;;;;;;5025696;27;20074;-40
2023/05/16 03:25:38;;;;;;;14.50;2.60;;;7.20;99.90;;;;;;5025463;27;20578;-38
2023/05/16 03:28:07;;;;;;;11.00;2.30;;;7.20;99.90;;;;;;5025033;27;20049;-36
2023/05/16 03:30:33;;;;;;;12.55;2.30;;;7.10;99.90;;;;;;5025061;27;20041;-41
2023/05/16 03:32:59;;;;;;;12.93;2.33;;;7.10;99.90;;;;;;5025491;27;20073;-38
2023/05/16 03:35:25;;;;;;;10.50;3.05;;;7.10;99.90;;;;;;5025012;27;20132;-35
2023/05/16 03:37:51;;;;;;;13.18;2.78;;;7.00;99.90;;;;;;5024246;27;20049;-36
2023/05/16 03:40:17;;;;;;;11.40;2.40;;;7.00;99.90;;;;;;5025274;27;20045;-40
2023/05/16 03:42:43;;;;;;;13.10;2.70;;;7.00;99.90;;;;;;5025485;27;20228;-41
2023/05/16 03:45:08;;;;;;;15.82;2.83;;;7.00;99.90;;;;;;5005993;28;20981;-37
2023/05/16 03:47:34;;;;;;;12.07;2.55;;;7.00;99.90;;;;;;5018649;27;20204;-39
2023/05/16 03:50:00;;;;;;;12.68;2.67;;;7.00;99.90;;;;;;5022331;27;20459;-35
2023/05/16 03:52:25;;;;;;;19.35;3.38;;;7.00;99.90;;;;;;5024433;27;20045;-38
2023/05/16 03:54:51;;;;;;;11.10;2.97;;;7.00;99.90;;;;;;5024566;27;20272;-38
2023/05/16 03:57:17;;;;;;;10.07;2.63;;;7.00;99.90;;;;;;5005545;28;20057;-37
2023/05/16 03:59:43;;;;;;;15.60;2.50;;;7.00;99.90;;;;;;5013088;28;20220;-39
2023/05/16 04:02:08;;;;;;;10.23;2.17;;;7.10;99.90;;;;;;4994606;28;20156;-37
2023/05/16 04:04:34;;;;;;;16.38;3.15;;;7.10;99.90;;;;;;5012943;28;20385;-40
2023/05/16 04:07:01;;;;;;;13.10;2.53;;;7.10;99.90;;;;;;5011344;28;20083;-36
2023/05/16 04:09:27;;;;;;;9.05;2.40;;;7.20;99.90;;;;;;4995790;28;20106;-39
2023/05/16 04:11:55;;;;;;;17.88;2.95;;;7.20;99.90;;;;;;5013244;28;20145;-41
2023/05/16 04:14:20;;;;;;;15.75;2.75;;;7.40;99.90;;;;;;4996684;28;20045;-38
2023/05/16 04:16:46;;;;;;;12.10;3.13;;;7.50;99.90;;;;;;4994791;28;20133;-41
2023/05/16 04:19:12;;;;;;;12.05;3.45;;;7.60;99.90;;;;;;4995898;28;20085;-39
2023/05/16 04:21:37;;;;;;;14.13;3.15;;;7.70;99.90;;;;;;5012981;28;20045;-40
2023/05/16 04:24:03;;;;;;;13.68;2.53;;;7.90;99.90;;;;;;5013480;28;20037;-41
2023/05/16 04:26:29;;;;;;;14.07;3.28;;;8.00;99.90;;;;;;4994974;28;20056;-35
2023/05/16 04:28:55;;;;;;;11.20;2.70;;;8.10;99.90;;;;;;5013555;28;20125;-41
2023/05/16 04:31:21;;;;;;;11.60;3.00;;;8.50;99.90;;;;;;5013763;28;20053;-42
2023/05/16 04:33:48;;;;;;;14.45;3.20;;;9.30;99.90;;;;;;5013956;28;20073;-40
2023/05/16 04:36:13;;;;;;;13.68;3.08;;;10.20;99.90;;;;;;4994537;28;20050;-42
2023/05/16 04:38:40;;;;;;;11.90;2.08;;;10.90;99.90;;;;;;5013786;28;20052;-42
2023/05/16 04:41:06;;;;;;;13.98;2.88;;;11.50;99.90;;;;;;5012874;28;20056;-40
2023/05/16 04:43:32;;;;;;;13.30;2.90;;;12.00;99.90;;;;;;5013490;28;20045;-39
2023/05/16 04:45:58;;;;;;;9.65;2.45;;;12.80;99.90;;;;;;5013064;28;20045;-41
2023/05/16 04:48:23;;;;;;;11.82;2.40;;;13.60;99.90;;;;;;5012476;28;20057;-43
2023/05/16 04:50:50;;;;;;;12.35;2.92;;;13.90;99.90;;;;;;5012753;28;20602;-42
2023/05/16 04:53:15;;;;;;;12.48;3.35;;;14.30;99.90;;;;;;5013391;28;20089;-40
2023/05/16 04:55:41;;;;;;;10.10;2.60;;;14.90;99.90;;;;;;5017226;28;20140;-40
2023/05/16 04:58:07;;;;;;;11.43;3.25;;;15.60;99.90;;;;;;5012406;28;20540;-40
2023/05/16 05:00:33;;;;;;;9.55;3.03;;;16.40;99.90;;;;;;5013547;28;20172;-44
2023/05/16 05:02:59;;;;;;;7.03;2.67;;;16.70;99.90;;;;;;5013589;28;20049;-41
2023/05/16 05:05:24;;;;;;;10.20;2.20;;;17.20;99.90;;;;;;4994358;28;20110;-41
2023/05/16 05:07:51;;;;;;;16.02;3.38;;;17.60;99.90;;;;;;5011430;28;20060;-40
2023/05/16 05:10:17;;;;;;;10.80;2.50;;;18.30;99.90;;;;;;5013247;28;20152;-41
2023/05/16 05:12:42;;;;;;;9.63;2.40;;;18.60;99.90;;;;;;5005169;28;20090;-41
2023/05/16 05:15:08;;;;;;;9.88;2.30;;;19.00;99.90;;;;;;5012204;28;20046;-41
2023/05/16 05:17:34;;;;;;;8.23;2.17;;;19.30;99.90;;;;;;4994344;28;20125;-42
2023/05/16 05:19:59;;;;;;;8.63;2.75;;;20.00;99.90;;;;;;5012443;28;20057;-36
2023/05/16 05:22:25;;;;;;;6.22;1.88;;;20.50;99.90;;;;;;5012693;28;20054;-37
2023/05/16 05:24:51;;;;;;;9.88;3.17;;;20.80;99.90;;;;;;4994825;28;20065;-39
2023/05/16 05:27:16;;;;;;;10.60;2.33;;;20.90;99.20;;;;;;4993949;28;20065;-40
2023/05/16 05:29:42;;;;;;;8.50;2.55;;;21.20;97.60;;;;;;5012946;28;20050;-42
2023/05/16 05:32:07;;;;;;;6.57;2.42;;;21.40;98.90;;;;;;5012161;28;20270;-44
2023/05/16 05:34:33;;;;;;;9.93;2.63;;;21.70;97.90;;;;;;5011969;28;20034;-44
2023/05/16 05:36:59;;;;;;;9.82;2.85;;;22.00;97.50;;;;;;5011489;28;20053;-39
2023/05/16 05:39:25;;;;;;;8.35;2.65;;;22.10;96.40;;;;;;4995066;28;20041;-37
2023/05/16 05:41:51;;;;;;;15.45;2.92;;;22.30;96.50;;;;;;5012201;28;20053;-43
2023/05/16 05:44:16;;;;;;;7.90;2.00;;;22.50;96.80;;;;;;5012647;28;20095;-42
2023/05/16 05:46:43;;;;;;;8.05;2.67;;;23.00;96.20;;;;;;5011725;28;20038;-47
2023/05/16 05:49:08;;;;;;;15.95;3.33;;;23.20;96.10;;;;;;5012396;28;20050;-42
2023/05/16 05:51:34;;;;;;;6.35;2.53;;;23.30;95.80;;;;;;5011882;28;20057;-43
2023/05/16 05:54:01;;;;;;;6.40;2.05;;;23.20;94.40;;;;;;4993984;28;20061;-37
2023/05/16 05:56:27;;;;;;;5.85;2.08;;;23.70;94.50;;;;;;4995133;28;20049;-39
2023/05/16 05:58:52;;;;;;;5.45;2.67;;;24.00;94.60;;;;;;5011003;28;20053;-42
2023/05/16 06:01:20;;;;;;;8.15;2.33;;;24.70;94.50;;;;;;5010005;28;20053;-46
2023/05/16 06:03:46;;;;;;;7.45;2.45;;;24.60;93.50;;;;;;5016900;28;20057;-42
2023/05/16 06:06:11;;;;;;;5.82;2.03;;;24.70;92.90;;;;;;5009470;28;20491;-43
2023/05/16 06:08:37;;;;;;;7.18;2.00;;;24.80;92.50;;;;;;5006108;28;20037;-41
2023/05/16 06:11:03;;;;;;;5.78;1.90;;;25.20;92.20;;;;;;5012457;28;20052;-45
2023/05/16 06:13:28;;;;;;;5.38;2.60;;;24.90;91.90;;;;;;4989802;28;20034;-44
2023/05/16 06:15:54;;;;;;;5.65;1.77;;;25.30;92.30;;;;;;5009006;28;20511;-46
2023/05/16 06:18:20;;;;;;;10.20;1.98;;;25.30;91.90;;;;;;4990218;28;20083;-43
2023/05/16 06:20:46;;;;;;;7.55;2.33;;;24.40;91.00;;;;;;5010692;28;20050;-44
2023/05/16 06:23:12;;;;;;;5.53;1.95;;;22.00;92.10;;;;;;5010277;28;20141;-42
2023/05/16 06:25:37;;;;;;;5.97;2.42;;;21.00;94.40;;;;;;5010169;28;20124;-43
2023/05/16 06:28:03;;;;;;;7.30;2.08;;;20.80;95.70;;;;;;5008359;28;20048;-47
2023/05/16 06:30:29;;;;;;;6.82;2.15;;;21.80;95.30;;;;;;5009268;28;20095;-39
2023/05/16 06:32:55;;;;;;;6.35;2.60;;;23.00;95.20;;;;;;5008621;28;20547;-43
2023/05/16 06:35:21;;;;;;;7.72;2.20;;;23.10;92.00;;;;;;5008709;28;20037;-38
2023/05/16 06:37:47;;;;;;;7.93;2.47;;;23.70;92.20;;;;;;4986870;28;20061;-40
2023/05/16 06:40:13;;;;;;;7.72;2.33;;;23.60;89.70;;;;;;5008625;28;20046;-39
2023/05/16 06:42:38;;;;;;;6.70;2.10;;;23.90;90.20;;;;;;5008673;28;20412;-42
2023/05/16 06:45:05;;;;;;;7.47;2.55;;;24.40;90.00;;;;;;5008263;28;20041;-44
2023/05/16 06:47:30;;;;;;;6.90;2.08;;;24.50;90.80;;;;;;4985749;28;20106;-46
2023/05/16 06:49:56;;;;;;;7.13;2.08;;;24.80;89.90;;;;;;5007571;28;20548;-43
2023/05/16 06:52:21;;;;;;;7.78;2.28;;;24.10;89.40;;;;;;5007966;28;20837;-42
2023/05/16 06:54:47;;;;;;;6.00;1.80;;;22.40;91.20;;;;;;5011157;28;20503;-41
2023/05/16 06:57:13;;;;;;;6.55;2.13;;;21.00;92.50;;;;;;5007822;28;20493;-45
2023/05/16 06:59:39;;;;;;;5.00;2.17;;;19.40;94.50;;;;;;5008207;28;20083;-42
2023/05/16 07:02:05;;;;;;;9.23;2.53;;;19.10;95.70;;;;;;5006991;28;20049;-43
2023/05/16 07:04:31;;;;;;;8.45;2.83;;;19.50;96.10;;;;;;5008321;28;20458;-43
2023/05/16 07:06:57;;;;;;;7.38;2.33;;;20.50;96.40;;;;;;5007073;28;20162;-42
2023/05/16 07:09:23;;;;;;;7.35;2.22;;;21.50;95.80;;;;;;5007783;28;20428;-43
2023/05/16 07:11:48;;;;;;;9.00;2.25;;;21.60;94.90;;;;;;5008621;28;20399;-46
2023/05/16 07:14:14;;;;;;;11.02;2.35;;;21.50;93.70;;;;;;4989515;28;20061;-41
2023/05/16 07:16:40;;;;;;;9.13;2.40;;;21.30;94.10;;;;;;4991755;28;20090;-44
2023/05/16 07:19:05;;;;;;;8.80;2.38;;;21.00;94.40;;;;;;4976951;28;20400;-43
2023/05/16 07:21:31;;;;;;;9.98;2.83;;;20.30;92.90;;;;;;4982087;28;20508;-45
2023/05/16 07:23:57;;;;;;;8.70;2.00;;;19.60;93.90;;;;;;5004551;28;20121;-37
2023/05/16 07:26:22;;;;;;;12.50;3.55;;;18.60;95.10;;;;;;4995670;28;20086;-44
2023/05/16 07:28:49;;;;;;;8.05;2.55;;;17.60;95.90;;;;;;5008628;28;20191;-44
2023/05/16 07:31:16;;;;;;;11.02;3.13;;;16.90;97.30;;;;;;4977405;28;20058;-45
2023/05/16 07:33:42;;;;;;;8.52;2.72;;;16.60;97.90;;;;;;4999036;28;20041;-39
2023/05/16 07:36:09;;;;;;;8.70;1.90;;;16.80;99.40;;;;;;5001617;28;20041;-46
2023/05/16 07:38:34;;;;;;;12.25;2.85;;;17.20;98.40;;;;;;4990068;28;20049;-44
2023/05/16 07:41:00;;;;;;;11.07;2.83;;;17.10;97.80;;;;;;4994590;28;20073;-39
2023/05/16 07:43:26;;;;;;;8.95;2.17;;;17.60;98.30;;;;;;5013027;28;20045;-41
2023/05/16 07:45:52;;;;;;;11.45;2.08;;;18.00;98.30;;;;;;5013029;28;20053;-42
2023/05/16 07:48:18;;;;;;;11.63;2.58;;;18.20;97.90;;;;;;4995306;28;20077;-39
2023/05/16 07:50:43;;;;;;;10.98;2.67;;;18.30;96.30;;;;;;5014583;28;20153;-47
2023/05/16 07:53:09;;;;;;;7.85;2.70;;;18.50;97.70;;;;;;5013851;28;20057;-39
2023/05/16 07:55:35;;;;;;;9.18;2.03;;;18.50;96.40;;;;;;5013646;28;20050;-42
2023/05/16 07:58:01;;;;;;;10.50;2.40;;;18.20;96.00;;;;;;5013468;28;20484;-39
2023/05/16 08:00:26;;;;;;;7.85;2.88;;;17.40;95.80;;;;;;5013555;28;20412;-40
2023/05/16 08:02:52;;;;;;;11.20;2.63;;;16.60;96.90;;;;;;5013359;28;20056;-39
2023/05/16 08:05:18;;;;;;;7.20;2.10;;;16.20;98.20;;;;;;5013602;28;20438;-39
2023/05/16 08:07:43;;;;;;;5.90;2.33;;;15.60;98.30;;;;;;5012554;28;20045;-42
2023/05/16 08:10:09;;;;;;;6.30;1.67;;;15.60;97.80;;;;;;5013278;28;20508;-41
2023/05/16 08:12:35;;;;;;;8.88;1.98;;;15.90;98.30;;;;;;4995185;28;20134;-45
2023/05/16 08:15:02;;;;;;;5.38;1.90;;;16.20;98.20;;;;;;5013233;28;20050;-42
2023/05/16 08:17:27;;;;;;;6.10;2.13;;;16.60;98.00;;;;;;5011961;28;20045;-39
2023/05/16 08:19:53;;;;;;;6.07;1.63;;;16.70;97.70;;;;;;5013661;28;20412;-44
2023/05/16 08:22:19;;;;;;;8.35;1.92;;;16.90;97.50;;;;;;5014105;28;20500;-37
2023/05/16 08:24:45;;;;;;;5.93;1.98;;;17.10;98.90;;;;;;4982299;28;20115;-44
2023/05/16 08:27:11;;;;;;;6.03;2.42;;;17.00;98.00;;;;;;5012882;28;20053;-36
2023/05/16 08:29:36;;;;;;;10.35;2.22;;;17.30;98.40;;;;;;5012452;28;20049;-41
2023/05/16 08:32:02;;;;;;;8.98;2.10;;;17.20;97.30;;;;;;5013152;28;20412;-43
2023/05/16 08:34:30;;;;;;;10.60;2.72;;;17.50;98.40;;;;;;5012820;28;20101;-38
2023/05/16 08:36:56;;;;;;;8.75;2.10;;;17.50;97.60;;;;;;4994546;28;20483;-38
2023/05/16 08:39:22;;;;;;;6.88;2.20;;;17.50;97.20;;;;;;5011809;28;20103;-40
2023/05/16 08:41:48;;;;;;;7.63;2.17;;;17.90;97.50;;;;;;5013137;28;20520;-41
2023/05/16 08:44:20;;;;;;;4.55;1.88;;;17.90;96.70;;;;;;5013255;28;20042;-42
2023/05/16 08:46:50;;;;;;;8.35;2.63;;;18.00;96.80;;;;;;5012861;28;20493;-41
2023/05/16 08:49:17;;;;;;;10.35;2.55;;;18.10;97.80;;;;;;5012532;28;20049;-41
2023/05/16 08:51:45;;;;;;;7.78;1.92;;;18.20;97.40;;;;;;5013771;28;20057;-46
2023/05/16 08:54:12;;;;;;;6.68;1.83;;;18.60;97.80;;;;;;4989070;28;20057;-41
2023/05/16 08:56:40;;;;;;;7.05;2.05;;;18.30;96.20;;;;;;5009754;28;20053;-43
2023/05/16 08:59:06;;;;;;;10.00;2.00;;;18.10;95.50;;;;;;4994419;28;20057;-36
2023/05/16 09:01:32;;;;;;;8.70;2.75;;;17.70;95.20;;;;;;5012924;28;20049;-42
2023/05/16 09:03:59;;;;;;;9.30;2.35;;;17.50;96.70;;;;;;4993799;28;20092;-38
2023/05/16 09:06:25;;;;;;;13.85;2.78;;;16.90;97.80;;;;;;4994148;28;20057;-39
2023/05/16 09:08:54;;;;;;;9.90;2.47;;;16.60;98.10;;;;;;5012007;28;20045;-43
2023/05/16 09:11:20;;;;;;;9.23;2.08;;;16.50;98.60;;;;;;5012338;28;20518;-41
2023/05/16 09:13:47;;;;;;;8.15;2.20;;;16.90;99.00;;;;;;5012979;28;20092;-41
2023/05/16 09:16:18;;;;;;;7.22;2.15;;;17.30;98.80;;;;;;4993561;28;20083;-43
2023/05/16 09:18:54;;;;;;;9.55;2.92;;;17.50;98.30;;;;;;5012566;28;20500;-43
2023/05/16 09:21:20;;;;;;;9.18;2.53;;;17.10;98.30;;;;;;5011728;28;20049;-36
2023/05/16 09:23:48;;;;;;;7.43;2.13;;;16.70;98.30;;;;;;5012329;28;20529;-42
2023/05/16 09:26:14;;;;;;;8.93;2.50;;;16.40;99.10;;;;;;5011629;28;20045;-41
2023/05/16 09:28:41;;;;;;;8.55;2.20;;;16.00;99.40;;;;;;5012142;28;20082;-42
2023/05/16 09:31:29;;;;;;;9.70;2.45;;;16.20;99.90;;;;;;5011991;28;20049;-40
2023/05/16 09:33:55;;;;;;;9.88;2.60;;;16.50;99.90;;;;;;5012082;28;20061;-40
2023/05/16 09:36:21;;;;;;;7.72;1.70;;;16.80;98.80;;;;;;4986812;28;20317;-38
2023/05/16 09:38:48;;;;;;;9.02;2.10;;;17.30;98.30;;;;;;5005982;28;20579;-38
2023/05/16 09:41:14;;;;;;;9.50;2.42;;;17.10;96.90;;;;;;5012361;28;20092;-40
2023/05/16 09:43:42;;;;;;;8.05;2.28;;;17.20;99.00;;;;;;5012159;28;20136;-39
2023/05/16 09:46:12;;;;;;;6.78;2.00;;;17.50;99.00;;;;;;5011564;28;20126;-40
2023/05/16 09:48:45;;;;;;;6.95;2.03;;;17.50;96.90;;;;;;4993363;28;20514;-44
2023/05/16 09:51:11;;;;;;;7.05;2.15;;;17.40;96.00;;;;;;5012789;28;20128;-38
2023/05/16 09:53:38;;;;;;;7.38;1.83;;;16.90;97.30;;;;;;5009618;28;20600;-41
2023/05/16 09:56:15;;;;;;;9.90;2.38;;;16.70;97.40;;;;;;4999019;28;20042;-42
2023/05/16 09:58:42;;;;;;;9.75;2.90;;;16.40;97.80;;;;;;5008833;27;20049;-37
2023/05/16 10:01:09;;;;;;;7.88;2.10;;;16.20;99.10;;;;;;4996029;28;20054;-43
2023/05/16 10:03:37;;;;;;;9.88;2.55;;;16.60;99.90;;;;;;5013938;27;20041;-40
2023/05/16 10:06:04;;;;;;;9.50;2.40;;;17.00;99.70;;;;;;5015912;28;20081;-40
2023/05/16 10:08:35;;;;;;;7.85;1.60;;;16.90;97.00;;;;;;4999720;28;20133;-38
2023/05/16 10:11:02;;;;;;;9.68;2.33;;;16.50;97.00;;;;;;5032161;27;20403;-36
2023/05/16 10:13:30;;;;;;;8.65;2.10;;;16.70;97.60;;;;;;5009462;28;20066;-39
2023/05/16 10:15:58;;;;;;;6.85;2.22;;;16.50;98.10;;;;;;5012301;28;20089;-36
2023/05/16 10:18:29;;;;;;;6.65;2.25;;;16.50;99.40;;;;;;4996766;28;20074;-41
2023/05/16 10:20:56;;;;;;;8.23;2.38;;;16.80;98.40;;;;;;4986743;28;20060;-43
2023/05/16 10:23:24;;;;;;;11.63;2.50;;;16.70;99.40;;;;;;4992103;28;20507;-40
2023/05/16 10:25:51;;;;;;;9.75;3.00;;;16.40;99.90;;;;;;5011681;28;20404;-37
2023/05/16 10:28:17;;;;;;;6.15;1.98;;;16.20;99.90;;;;;;5012593;27;20110;-41
2023/05/16 10:30:47;;;;;;;7.95;2.33;;;16.00;99.90;;;;;;5011140;28;20490;-43
2023/05/16 10:33:14;;;;;;;8.75;2.00;;;16.20;99.90;;;;;;5011305;28;20668;-38
2023/05/16 10:35:41;;;;;;;7.30;2.15;;;16.50;99.90;;;;;;5006696;28;20089;-42
2023/05/16 10:38:08;;;;;;;9.20;3.33;;;16.70;99.90;;;;;;5009928;28;20045;-40
2023/05/16 10:40:36;;;;;;;7.82;2.60;;;16.90;99.90;;;;;;5010794;28;20041;-39
2023/05/16 10:43:03;;;;;;;8.88;2.20;;;17.20;99.90;;;;;;5010204;28;20056;-44
2023/05/16 10:45:29;;;;;;;5.68;2.10;;;17.30;99.90;;;;;;5007011;28;20170;-47
2023/05/16 10:47:56;;;;;;;6.30;1.90;;;17.60;98.40;;;;;;5009580;28;20053;-48
2023/05/16 10:50:40;;;;;;;9.48;2.17;;;17.50;97.30;;;;;;5010118;28;20057;-42
2023/05/16 10:53:20;;;;;;;9.88;2.30;;;17.60;97.80;;;;;;5010525;28;20046;-42
2023/05/16 10:55:58;;;;;;;8.68;2.75;;;17.30;98.10;;;;;;5008405;28;20114;-46
2023/05/16 10:58:42;;;;;;;10.75;2.03;;;17.40;99.10;;;;;;4991391;28;20053;-45
2023/05/16 11:01:23;;;;;;;9.15;2.47;;;17.30;99.10;;;;;;5010499;28;20076;-43
2023/05/16 11:03:57;;;;;;;10.13;2.50;;;17.20;99.90;;;;;;4991911;28;20065;-41
2023/05/16 11:06:24;;;;;;;8.57;2.38;;;17.50;98.80;;;;;;5011087;28;20599;-41
2023/05/16 11:11:52;;;;;;;9.32;2.75;;;18.10;99.00;;;;;;5013985;28;20141;-39
2023/05/16 11:14:32;;;;;;;9.15;2.17;;;17.80;99.70;;;;;;5013685;28;20081;-37
2023/05/16 11:17:02;;;;;;;10.60;2.22;;;17.50;99.00;;;;;;5013192;28;20057;-42
2023/05/16 11:19:34;;;;;;;7.45;2.10;;;17.60;99.40;;;;;;5013843;28;20700;-39
2023/05/16 11:22:07;;;;;;;5.15;1.73;;;17.40;99.90;;;;;;5014021;28;20073;-37
2023/05/16 11:24:34;;;;;;;7.53;1.90;;;17.20;99.40;;;;;;5014636;28;20046;-41
2023/05/16 11:27:01;;;;;;;5.72;2.10;;;16.90;99.90;;;;;;4996088;28;20050;-37
2023/05/16 11:29:30;;;;;;;7.97;2.00;;;16.60;99.90;;;;;;5014109;28;20564;-37
2023/05/16 11:32:02;;;;;;;7.93;1.98;;;16.30;99.90;;;;;;4996539;28;20049;-44
2023/05/16 11:34:28;;;;;;;11.43;2.30;;;16.00;99.90;;;;;;5014800;28;20392;-36
2023/05/16 11:36:55;;;;;;;6.25;3.15;;;15.90;99.90;;;;;;5013935;28;20056;-41
2023/05/16 11:39:23;;;;;;;9.10;2.72;;;15.90;99.90;;;;;;5014040;28;20488;-39
2023/05/16 11:41:50;;;;;;;6.65;2.05;;;15.90;99.90;;;;;;4996386;28;20064;-41
2023/05/16 11:44:16;;;;;;;10.15;2.75;;;16.20;99.90;;;;;;5014353;28;20551;-41
2023/05/16 11:46:41;;;;;;;4.97;2.15;;;16.40;99.90;;;;;;4997246;28;20041;-40
2023/05/16 11:49:09;;;;;;;6.15;1.83;;;16.80;99.90;;;;;;5013648;28;20129;-40
2023/05/16 11:51:42;;;;;;;4.68;2.17;;;16.80;99.50;;;;;;5014404;28;20049;-37
2023/05/16 11:54:11;;;;;;;5.60;2.72;;;17.00;99.90;;;;;;5009238;28;20088;-37
2023/05/16 11:56:39;;;;;;;6.20;2.40;;;17.20;98.80;;;;;;5011565;28;20890;-45
2023/05/16 11:59:06;;;;;;;27.40;3.50;;;17.10;98.70;;;;;;5013907;28;20824;-36
2023/05/16 12:01:36;;;;;;;5.63;2.60;;;17.00;99.30;;;;;;5014950;28;20118;-39
2023/05/16 12:04:08;;;;;;;7.07;2.88;;;17.10;99.50;;;;;;5015089;28;20502;-40
2023/05/16 12:06:34;;;;;;;5.57;2.63;;;17.30;99.60;;;;;;5014275;28;20074;-43
2023/05/16 12:09:02;;;;;;;9.55;3.30;;;17.30;99.40;;;;;;5014003;28;20651;-45
2023/05/16 12:11:29;;;;;;;6.13;2.45;;;17.10;99.10;;;;;;5014571;28;20050;-37
2023/05/16 12:13:55;;;;;;;8.77;3.42;;;16.90;98.80;;;;;;5013992;28;20106;-42
2023/05/16 12:16:21;;;;;;;10.52;3.00;;;17.20;99.30;;;;;;5012751;28;20038;-40
2023/05/16 12:18:48;;;;;;;9.13;3.10;;;17.10;98.20;;;;;;5013707;28;20148;-40
2023/05/16 12:21:15;;;;;;;6.50;2.92;;;17.20;99.40;;;;;;4996548;28;20049;-41
2023/05/16 12:23:41;;;;;;;6.45;3.08;;;17.10;97.90;;;;;;5014463;28;20045;-41
2023/05/16 12:26:07;;;;;;;7.53;2.58;;;17.10;98.80;;;;;;4995091;28;20085;-42
2023/05/16 12:28:34;;;;;;;8.63;3.03;;;17.00;99.00;;;;;;5013631;28;20161;-42
2023/05/16 12:31:00;;;;;;;10.02;3.13;;;17.00;99.70;;;;;;4996624;28;20140;-41
2023/05/16 12:33:26;;;;;;;6.70;2.83;;;17.30;99.90;;;;;;5013928;28;20079;-39
2023/05/16 12:35:53;;;;;;;8.70;3.22;;;17.50;99.10;;;;;;5013734;28;20053;-38
2023/05/16 12:38:19;;;;;;;9.10;3.00;;;17.30;97.30;;;;;;5013751;28;20081;-39
2023/05/16 12:40:46;;;;;;;9.10;3.17;;;17.50;98.10;;;;;;5014948;28;20056;-42
2023/05/16 12:43:22;;;;;;;11.23;3.58;;;17.50;98.50;;;;;;4997832;28;20528;-37
2023/05/16 12:45:57;;;;;;;7.03;3.60;;;17.30;96.30;;;;;;5013318;28;20438;-37
2023/05/16 12:48:31;;;;;;;8.48;4.38;;;17.30;97.80;;;;;;5013338;28;20573;-41
2023/05/16 12:51:07;;;;;;;13.02;4.63;;;17.10;97.60;;;;;;4996139;28;20138;-44
2023/05/16 12:53:41;;;;;;;6.65;3.90;;;17.10;97.30;;;;;;5012993;28;20298;-45
2023/05/16 12:56:06;;;;;;;10.65;3.90;;;17.00;97.10;;;;;;5006656;28;20049;-37
2023/05/16 12:58:32;;;;;;;6.65;3.80;;;17.10;97.40;;;;;;5013449;28;20511;-40
2023/05/16 13:00:58;;;;;;;8.82;4.13;;;17.20;97.70;;;;;;5014103;28;20220;-40
2023/05/16 13:03:24;;;;;;;9.65;3.80;;;17.00;97.90;;;;;;5014002;28;20555;-40
2023/05/16 13:05:49;;;;;;;10.88;3.78;;;16.80;97.30;;;;;;5013409;28;20038;-40
2023/05/16 13:08:15;;;;;;;8.75;4.10;;;16.70;98.50;;;;;;5013242;28;20049;-44
2023/05/16 13:10:41;;;;;;;5.53;3.40;;;16.90;98.50;;;;;;5013834;28;20422;-42
2023/05/16 13:13:07;;;;;;;12.90;3.40;;;17.10;99.90;;;;;;5013754;28;20085;-42
2023/05/16 13:15:32;;;;;;;10.57;3.33;;;17.00;98.70;;;;;;5013312;28;20148;-40
2023/05/16 13:17:58;;;;;;;8.20;3.22;;;16.90;98.50;;;;;;5013067;28;20049;-39
2023/05/16 13:20:24;;;;;;;9.02;3.40;;;16.70;98.80;;;;;;5013734;28;20441;-41
2023/05/16 13:22:50;;;;;;;8.65;3.58;;;16.30;99.10;;;;;;5013122;28;20536;-44
2023/05/16 13:25:16;;;;;;;11.25;4.05;;;16.30;99.00;;;;;;4995140;28;20049;-43
2023/05/16 13:27:41;;;;;;;12.55;4.57;;;16.10;98.60;;;;;;5012827;28;20183;-41
2023/05/16 13:30:07;;;;;;;11.93;4.32;;;16.00;99.90;;;;;;5012535;28;20053;-41
2023/05/16 13:32:33;;;;;;;10.65;3.72;;;15.80;99.70;;;;;;5012740;28;20049;-42
2023/05/16 13:34:59;;;;;;;9.25;4.05;;;15.70;99.90;;;;;;4995426;28;20046;-38
2023/05/16 13:37:25;;;;;;;11.85;4.20;;;15.70;99.90;;;;;;5011434;28;20068;-39
2023/05/16 13:39:53;;;;;;;8.77;4.70;;;15.80;99.90;;;;;;5013164;28;20485;-47
2023/05/16 13:42:19;;;;;;;11.60;5.38;;;16.10;99.90;;;;;;4994519;28;20049;-37
2023/05/16 13:44:45;;;;;;;9.93;5.40;;;16.40;99.10;;;;;;5012504;28;20084;-44
2023/05/16 13:47:11;;;;;;;10.80;6.13;;;16.50;99.50;;;;;;5009913;28;20168;-41
2023/05/16 13:49:37;;;;;;;10.52;6.13;;;16.70;98.80;;;;;;5013018;28;20041;-38
2023/05/16 13:52:04;;;;;;;10.35;5.30;;;16.80;98.90;;;;;;5012528;28;20492;-41
2023/05/16 13:54:30;;;;;;;10.05;5.35;;;17.10;98.70;;;;;;5004021;28;20087;-39
2023/05/16 13:56:56;;;;;;;9.43;6.22;;;17.00;97.20;;;;;;5032780;27;20047;-41
2023/05/16 13:59:22;;;;;;;9.95;5.72;;;16.80;97.60;;;;;;5012588;28;20041;-44
2023/05/16 14:01:48;;;;;;;10.48;6.13;;;16.70;98.40;;;;;;4993157;28;20084;-37
2023/05/16 14:04:13;;;;;;;10.10;5.18;;;16.50;98.50;;;;;;5011377;28;20128;-46
2023/05/16 14:06:40;;;;;;;8.35;4.90;;;16.40;98.20;;;;;;5010780;28;20053;-40
2023/05/16 14:09:06;;;;;;;9.02;5.05;;;16.20;98.30;;;;;;5011009;28;20049;-40
2023/05/16 14:11:32;;;;;;;8.13;4.57;;;16.00;98.80;;;;;;5012112;28;20057;-41
2023/05/16 14:13:58;;;;;;;11.57;5.40;;;15.80;98.80;;;;;;5012320;28;20506;-36
2023/05/16 14:16:24;;;;;;;7.55;4.55;;;15.70;99.10;;;;;;5009151;28;20045;-39
2023/05/16 14:18:50;;;;;;;8.50;4.53;;;15.80;98.80;;;;;;5011698;28;20057;-41
2023/05/16 14:21:16;;;;;;;12.10;4.93;;;15.80;99.40;;;;;;4994898;28;20144;-44
2023/05/16 14:23:42;;;;;;;10.18;4.50;;;15.70;99.90;;;;;;5013242;28;20498;-40
2023/05/16 14:26:07;;;;;;;8.38;4.10;;;15.70;99.90;;;;;;5011653;28;20057;-42
2023/05/16 14:28:33;;;;;;;8.02;4.13;;;15.80;99.90;;;;;;4993963;28;20045;-40
2023/05/16 14:31:00;;;;;;;9.75;4.78;;;15.90;99.90;;;;;;5011694;28;20049;-36
2023/05/16 14:33:26;;;;;;;8.80;4.05;;;15.90;99.90;;;;;;5011843;28;20170;-37
2023/05/16 14:35:52;;;;;;;9.48;3.97;;;15.90;99.90;;;;;;5011322;28;20046;-40